Franconia, New Hampshire
Current Conditions -  °F | °C
As of 2:52 AM on Thursday 23 Oct 2014 (Local Time) from KHIE Reporting Station
Overcast Overcast  
Wind Chill:   Ceiling: 2200
Heat Index:   Visibility: 10mi
Dew Point:   Wind: 7mph
Humidity: 90%   Direction: 40°NE
Pressure: 29.97"   Gusts: NA
Location:  44.23°N, 71.75°W
Report Text: KHIE 230652Z AUTO 04006KT 10SM OVC022 08/07 A2997 RMK AO2 SLP154 T00830067
Loading
Personal Weather Stations






























Interactive Weather Map New forecast layout! Learn more

10-Day Weather Forecast

Advertisements
Track Severe Weather on mobile